• Join FlightAware (Why Join?)
  • Login
  • US Flag 
05:20PM EDT


 

Airport Tracker/Info


-or-


 

Live Flight TrackerFlight Track Log ✈ N830QS ✈ 21-Aug-2013 ✈ KLNK - KBTV

Flight Track Log - Related Links

Times and Time Zones

All times are in EDT time to prevent confusion due to time zone crossing. See the N830QS flight status page for this flight to view local times or setup timezone preferences in your user account.

Time Position Orientation Groundspeed Altitude Reporting Facility
EDT Latitude Longitude Course Direction KTS MPH feet Rate Location/Type
03:54PM 40.8317 -96.7439 135° Southeast 151 174 1,700  Level Minneapolis Center
03:55PM 40.8022 -96.7056 135° Southeast 216 249 4,100 2,160 Climbing Minneapolis Center
03:56PM 40.8464 -96.6456 46° Northeast 266 306 5,900 2,340 Climbing Minneapolis Center
03:57PM 40.9008 -96.5375 56° Northeast 288 331 8,900 2,700 Climbing Minneapolis Center
03:58PM 40.9506 -96.4414 56° Northeast 308 354 11,500 2,460 Climbing Minneapolis Center
03:59PM 40.9803 -96.3294 71° East 320 368 14,000 1,680 Climbing Minneapolis Center
04:00PM 41.0331 -96.2311 55° Northeast 349 402 15,000 1,020 Climbing Minneapolis Center
04:01PM 41.0306 -96.1056 91° East 354 407 16,200 1,740 Climbing Minneapolis Center
04:02PM 41.0297 -95.9508 90° East 354 407 18,600 1,920 Climbing Minneapolis Center
04:03PM 41.0475 -95.8219 80° East 357 411 20,200 1,500 Climbing Minneapolis Center
04:04PM 41.0647 -95.6867 80° East 369 425 21,700 1,440 Climbing Minneapolis Center
04:05PM 41.0828 -95.5489 80° East 377 434 23,200 1,440 Climbing Minneapolis Center
04:06PM 41.1003 -95.4097 80° East 384 442 24,700 1,560 Climbing Minneapolis Center
04:07PM 41.1228 -95.2411 80° East 387 445 26,500 1,440 Climbing Minneapolis Center
04:08PM 41.1397 -95.0983 81° East 391 450 27,700 1,020 Climbing Minneapolis Center
04:09PM 41.1581 -94.9508 81° East 401 461 28,700 960 Climbing Minneapolis Center
04:10PM 41.1769 -94.8000 81° East 411 473 29,700 960 Climbing Minneapolis Center
04:11PM 41.1947 -94.6478 81° East 416 479 30,700 960 Climbing Minneapolis Center
04:12PM 41.2131 -94.4956 81° East 419 482 31,700 1,020 Climbing Minneapolis Center
04:13PM 41.2344 -94.3117 81° East 420 483 32,900 1,020 Climbing Minneapolis Center
04:14PM 41.2531 -94.1664 80° East 424 488 33,900 960 Climbing Minneapolis Center
04:15PM 41.2697 -94.0158 82° East 419 482 34,900 960 Climbing Minneapolis Center
04:16PM 41.2869 -93.8633 81° East 419 482 35,900 1,020 Climbing Minneapolis Center
04:17PM 41.3075 -93.6856 81° East 413 475 37,100 1,020 Climbing Minneapolis Center
04:18PM 41.3236 -93.5389 82° East 407 468 38,100 900 Climbing Minneapolis Center
04:19PM 41.3397 -93.3925 82° East 403 464 39,000 420 Climbing Minneapolis Center
04:20PM 41.3558 -93.2436 82° East 406 467 39,000 240 Level Minneapolis Center
04:21PM 41.3722 -93.0900 82° East 415 478 39,500 540 Climbing Minneapolis Center
04:22PM 41.3914 -92.9058 82° East 420 483 40,200 540 Climbing Minneapolis Center
04:23PM 41.4072 -92.7528 82° East 421 484 40,700 360 Climbing Minneapolis Center
04:25PM 41.4233 -92.6000 82° East 419 482 41,000 120 Climbing Chicago Center
04:26PM 41.4392 -92.4444 82° East 426 490 41,000  Level Chicago Center
04:27PM 41.4564 -92.2708 82° East 434 499 41,000  Level Chicago Center
04:28PM 41.4714 -92.1119 83° East 437 503 41,000  Level Chicago Center
04:29PM 41.4900 -91.9211 83° East 436 502 41,000  Level Chicago Center
04:30PM 41.5053 -91.7617 83° East 437 503 41,000  Level Chicago Center
04:31PM 41.5194 -91.6028 83° East 438 504 41,000  Level Chicago Center
04:32PM 41.5225 -91.4400 89° East 446 513 41,000  Level Chicago Center
04:33PM 41.5258 -91.2817 88° East 438 504 41,000  Level Chicago Center
04:34PM 41.5300 -91.0883 88° East 439 505 41,000  Level Chicago Center
04:35PM 41.5322 -90.9269 89° East 440 506 41,000  Level Chicago Center
04:36PM 41.5356 -90.7644 88° East 443 510 41,000  Level Chicago Center
04:37PM 41.5381 -90.5903 89° East 442 509 41,000  Level Chicago Center
04:38PM 41.5397 -90.4275 89° East 440 506 41,000  Level Chicago Center
04:39PM 41.5422 -90.2631 89° East 441 507 41,000  Level Chicago Center
04:40PM 41.5433 -90.1011 89° East 439 505 41,000  Level Chicago Center
04:41PM 41.5456 -89.9408 89° East 433 498 41,000  Level Chicago Center
04:42PM 41.5464 -89.7525 90° East 425 489 41,000  Level Chicago Center
04:43PM 41.5475 -89.5994 89° East 415 478 41,000  Level Chicago Center
04:44PM 41.5483 -89.4361 90° East 415 478 41,000  Level Chicago Center
04:45PM 41.5497 -89.2856 89° East 410 472 41,000  Level Chicago Center
04:46PM 41.5494 -89.1339 90° East 412 474 41,000  Level Chicago Center
04:47PM 41.5492 -88.9828 90° East 412 474 41,000  Level Chicago Center
04:48PM 41.5492 -88.8317 90° East 411 473 41,000  Level Chicago Center
04:49PM 41.5486 -88.6531 90° East 407 468 41,000  Level Chicago Center
04:50PM 41.5467 -88.5056 91° East 399 459 41,000  Level Chicago Center
04:51PM 41.5469 -88.3556 90° East 402 463 41,000  Level Chicago Center
04:53PM 41.5478 -88.2033 90° East 406 467 41,000  Level Chicago Center
04:54PM 41.5492 -88.0472 89° East 419 482 41,000  Level Chicago Center
04:55PM 41.5472 -87.8922 91° East 412 474 41,000  Level Chicago Center
04:56PM 41.5456 -87.7428 91° East 404 465 41,000  Level Chicago Center
04:57PM 41.5436 -87.5669 91° East 397 457 41,000  Level Chicago Center
04:58PM 41.5425 -87.4206 91° East 396 456 41,000  Level Chicago Center
04:59PM 41.5419 -87.2736 90° East 398 458 41,000  Level Chicago Center
05:00PM 41.5400 -87.1281 91° East 395 455 41,000  Level Chicago Center
05:01PM 41.5383 -86.9819 91° East 396 456 41,000  Level Chicago Center
05:02PM 41.5361 -86.8056 91° East 398 458 41,000  Level Chicago Center
05:03PM 41.5339 -86.6706 91° East 401 461 41,000  Level Chicago Center
05:04PM 41.5317 -86.5233 91° East 399 459 41,000  Level Chicago Center
05:05PM 41.5294 -86.3753 91° East 401 461 41,000  Level Chicago Center
05:06PM 41.5253 -86.1967 92° East 402 463 41,000  Level Chicago Center
05:07PM 41.5233 -86.0511 91° East 397 457 41,000  Level Chicago Center
05:08PM 41.5197 -85.9025 92° East 401 461 41,000  Level Chicago Center
05:09PM 41.5161 -85.7558 92° East 399 459 41,000  Level Chicago Center
05:10PM 41.5122 -85.6097 92° East 398 458 41,000  Level Chicago Center
05:11PM 41.5086 -85.4350 92° East 404 465 41,000  Level Chicago Center
05:12PM 41.5044 -85.2861 92° East 411 473 41,000  Level Chicago Center
05:13PM 41.5014 -85.1375 92° East 412 474 41,000  Level Chicago Center
05:14PM 41.4986 -84.9928 91° East 400 460 41,000  Level Chicago Center
05:15PM 41.4936 -84.8217 92° East 391 450 41,000  Level Chicago Center
05:16PM 41.4892 -84.6761 92° East 392 451 41,000  Level Chicago Center
05:17PM 41.4844 -84.5300 92° East 395 455 41,000  Level Chicago Center
05:18PM 41.4792 -84.3825 93° East 399 459 41,000  Level Chicago Center
05:19PM 41.4742 -84.2356 93° East 399 459 41,000  Level Chicago Center
05:20PM 41.4953 -84.0650 81° East 409 471 41,000  Level Chicago Center
05:22PM 41.5278 -83.9172 74° East 384 442 41,000  Level Cleveland Center
05:23PM 41.5611 -83.7775 72° East 384 442 41,000  Level Cleveland Center
05:24PM 41.5981 -83.6375 71° East 389 448 41,000  Level Cleveland Center
05:25PM 41.6311 -83.4975 72° East 389 448 41,000  Level Cleveland Center
05:26PM 41.6658 -83.3572 72° East 389 448 41,000  Level Cleveland Center
05:27PM 41.6981 -83.2308 71° East 398 458 41,000  Level Cleveland Center
05:28PM 41.7325 -83.0903 72° East 398 458 41,000  Level Cleveland Center
05:29PM 41.7644 -82.9494 73° East 393 452 41,000  Level Cleveland Center
05:30PM 41.8008 -82.8086 71° East 393 452 41,000  Level Cleveland Center
05:31PM 41.8347 -82.6678 72° East 398 458 41,000  Level Cleveland Center
05:32PM 41.8686 -82.5239 72° East 398 458 41,000  Level Cleveland Center
05:33PM 41.9022 -82.3797 73° East 398 458 41,000  Level Cleveland Center
05:34PM 41.9356 -82.2411 72° East 398 458 41,000  Level Cleveland Center
05:35PM 41.9708 -82.0997 71° East 398 458 41,000  Level Cleveland Center
05:36PM 42.0061 -81.9497 72° East 405 466 41,000  Level Cleveland Center
05:37PM 42.0389 -81.8078 73° East 405 466 41,000  Level Cleveland Center
05:38PM 42.0739 -81.6461 74° East 400 460 41,000  Level Cleveland Center
05:39PM 42.1083 -81.4983 73° East 400 460 41,000  Level Cleveland Center
05:40PM 42.1408 -81.3533 73° East 400 460 41,000  Level Cleveland Center
05:41PM 42.1731 -81.2050 74° East 400 460 41,000  Level Cleveland Center
05:42PM 42.2092 -81.0597 71° East 400 460 41,000  Level Cleveland Center
05:43PM 42.2389 -80.9114 75° East 400 460 41,000  Level Cleveland Center
05:44PM 42.2725 -80.7628 73° East 400 460 41,000  Level Cleveland Center
05:45PM 42.2997 -80.6308 74° East 400 460 41,000  Level Cleveland Center
05:46PM 42.3331 -80.4792 73° East 400 460 41,000  Level Cleveland Center
05:47PM 42.3642 -80.3303 74° East 400 460 41,000  Level Cleveland Center
05:48PM 42.3950 -80.1839 74° East 405 466 41,000  Level Cleveland Center
05:49PM 42.4275 -80.0319 74° East 405 466 41,000  Level Cleveland Center
05:50PM 42.4581 -79.8853 74° East 410 472 41,000  Level Cleveland Center
05:51PM 42.4944 -79.7217 73° East 410 472 41,000  Level Cleveland Center
05:52PM 42.5267 -79.5689 74° East 410 472 41,000  Level Cleveland Center
05:53PM 42.5586 -79.4192 74° East 410 472 41,000  Level Cleveland Center
05:54PM 42.5883 -79.2661 75° East 410 472 41,000  Level Cleveland Center
05:55PM 42.6197 -79.1161 74° East 410 472 41,000  Level Cleveland Center
05:56PM 42.6489 -78.9600 76° East 415 478 41,000  Level Cleveland Center
05:57PM 42.6819 -78.8067 74° East 420 483 41,000  Level Cleveland Center
05:58PM 42.7108 -78.6478 76° East 420 483 41,000  Level Cleveland Center
05:59PM 42.7414 -78.4939 75° East 420 483 41,000  Level Cleveland Center
06:00PM 42.7719 -78.3375 75° East 420 483 41,000  Level Cleveland Center
06:01PM 42.8083 -78.1833 72° East 420 483 41,000  Level Cleveland Center
06:02PM 42.8614 -78.0367 64° Northeast 420 483 41,000  Level Cleveland Center
06:03PM 42.9103 -77.8875 66° East 425 489 41,000  Level Cleveland Center
06:04PM 42.9533 -77.7664 64° Northeast 425 489 41,000  Level Cleveland Center
06:05PM 43.0094 -77.6019 65° Northeast 425 489 41,000  Level Cleveland Center
06:06PM 43.0597 -77.4517 65° Northeast 431 496 41,000  Level Cleveland Center
06:07PM 43.1097 -77.3014 65° Northeast 431 496 41,000  Level Cleveland Center
06:08PM 43.2000 -77.0322 65° Northeast 429 494 41,000  Level Boston Center
06:09PM 43.2497 -76.8847 65° Northeast 429 494 41,000  Level Boston Center
06:10PM 43.3014 -76.7317 65° Northeast 434 499 41,000  Level Boston Center
06:11PM 43.3528 -76.5839 66° East 429 494 41,000  Level Boston Center
06:12PM 43.3553 -76.5616 66° East  Level FlightAware Approximate
06:12PM 43.4019 -76.4328 66° East 429 494 41,000  Level Boston Center
06:13PM 43.4711 -76.3000 54° Northeast 429 494 40,600 -1,020 Descending Boston Center
06:14PM 43.5725 -76.2003 35° Northeast 423 487 39,000 -1,620 Descending Boston Center
06:15PM 43.6758 -76.0919 37° Northeast 443 510 37,500 -1,560 Descending Boston Center
06:17PM 43.7256 -75.9184 68° East  Level Estimated
06:17PM 43.8739 -75.8936 68° East 441 507 34,500  Level Boston Center
06:18PM 43.9769 -75.7956 34° Northeast 441 507 33,000 -1,500 Descending Boston Center
06:19PM 44.0800 -75.6858 37° Northeast 452 520 31,500 -1,500 Descending Boston Center
06:20PM 44.1669 -75.5575 47° Northeast 452 520 30,000 -1,560 Descending Boston Center
06:21PM 44.2497 -75.4225 49° Northeast 453 521 28,500 -1,980 Descending Boston Center
06:22PM 44.2894 -75.2592 71° East 430 495 26,200 -2,400 Descending Boston Center
06:23PM 44.2997 -75.0886 85° East 430 495 23,700 -2,520 Descending Boston Center
06:24PM 44.3053 -74.9292 87° East 421 484 21,200 -2,340 Descending Boston Center
06:25PM 44.3128 -74.7700 86° East 416 479 19,000 -1,140 Descending Boston Center
06:26PM 44.3200 -74.6136 86° East 405 466 19,000  Level Boston Center
06:27PM 44.3292 -74.4572 85° East 399 459 19,000 -540 Level Boston Center
06:28PM 44.3378 -74.3064 85° East 399 459 18,000 -1,200 Descending Boston Center
06:29PM 44.3444 -74.1528 86° East 399 459 16,600 -1,500 Descending Boston Center
06:30PM 44.3550 -73.9964 85° East 384 442 15,000 -1,620 Descending Boston Center
06:31PM 44.3611 -73.8514 87° East 373 429 13,500 -1,800 Descending Boston Center
06:32PM 44.3711 -73.7122 84° East 365 420 11,500 -2,340 Descending Boston Center
06:33PM 44.3764 -73.6047 86° East 326 375 8,900 -2,820 Descending Boston Center
06:34PM 44.3961 -73.4889 77° East 306 352 5,900 -2,460 Descending Boston Center
06:35PM 44.4136 -73.3875 76° East 283 326 4,000 -1,560 Descending Boston Center
06:36PM 44.4456 -73.3094 60° Northeast 243 280 2,900 -1,140 Descending Boston Center
06:37PM 44.4772 -73.2431 56° Northeast 217 250 1,800 -1,080 Descending Boston Center
06:38PM 44.4922 -73.1908 68° East 167 192 800 -780 Descending Boston Center
06:39PM 44.4800 -73.1528 114° Southeast 101 116 300 -300 Descending Boston Center
06:40PM 44.4697 -73.1208 114° Southeast 101 116 300 5,220 Level Boston Center
06:41PM 44.4594 -73.0828 111° Southeast 101 116 11,000 5,340 Climbing Boston Center
06:42PM 44.4494 -73.0478 112° Southeast 101 116 11,000  Level Boston Center
06:43PM 44.4392 -73.0100 111° Southeast 101 116 11,000  Level Boston Center